Time;durP1;ratioP1;P1;durP2;ratioP2;P2;SDS_P1;SDS_P2;PMS_P1;PMS_P2;Temp;Humidity;BMP_temperature;BMP_pressure;BME280_temperature;BME280_humidity;BME280_pressure;Samples;Min_cycle;Max_cycle;Signal;HPM_P1;HPM_P2
2021/12/21 00:00:38;;;;;;;17.47;6.07;;;;;;;;;;5011268;28;20208;-60
2021/12/21 00:03:03;;;;;;;20.77;7.33;;;;;;;;;;5010620;28;20581;-60
2021/12/21 00:05:29;;;;;;;13.77;6.23;;;;;;;;;;5010636;28;20921;-60
2021/12/21 00:07:56;;;;;;;15.80;5.97;;;;;;;;;;5010147;28;20220;-60
2021/12/21 00:10:22;;;;;;;14.03;5.80;;;;;;;;;;5011575;28;20220;-60
2021/12/21 00:13:07;;;;;;;11.07;5.63;;;;;;;;;;5011719;28;20299;-60
2021/12/21 00:18:06;;;;;;;14.90;6.07;;;;;;;;;;5010593;28;20216;-60
2021/12/21 00:20:48;;;;;;;13.27;6.33;;;;;;;;;;5009562;28;20296;-60
2021/12/21 00:23:29;;;;;;;12.93;6.13;;;;;;;;;;5011411;28;20238;-60
2021/12/21 00:25:55;;;;;;;17.03;6.40;;;;;;;;;;5011701;28;20294;-60
2021/12/21 00:28:20;;;;;;;14.17;5.90;;;;;;;;;;5008997;28;20304;-60
2021/12/21 00:30:46;;;;;;;14.23;5.57;;;;;;;;;;5011478;28;20208;-60
2021/12/21 00:33:11;;;;;;;15.27;5.40;;;;;;;;;;5011137;28;20597;-60
2021/12/21 00:35:36;;;;;;;15.60;6.73;;;;;;;;;;5010820;28;20213;-60
2021/12/21 00:38:04;;;;;;;13.40;5.33;;;;;;;;;;5009902;28;20251;-60
2021/12/21 00:40:29;;;;;;;10.93;5.00;;;;;;;;;;5011709;28;20196;-60
2021/12/21 00:42:54;;;;;;;14.80;5.60;;;;;;;;;;5010516;28;20263;-60
2021/12/21 00:45:20;;;;;;;15.23;5.07;;;;;;;;;;5010619;28;20236;-60
2021/12/21 00:47:48;;;;;;;15.43;5.07;;;;;;;;;;5011349;28;20212;-60
2021/12/21 00:50:17;;;;;;;13.83;5.87;;;;;;;;;;5010194;28;20247;-60
2021/12/21 00:52:43;;;;;;;13.27;5.10;;;;;;;;;;5009974;28;20223;-60
2021/12/21 00:55:08;;;;;;;15.57;5.50;;;;;;;;;;5010313;28;20581;-60
2021/12/21 00:57:34;;;;;;;11.47;4.73;;;;;;;;;;5010475;28;20230;-60
2021/12/21 00:59:59;;;;;;;15.37;4.73;;;;;;;;;;5010970;28;20200;-60
2021/12/21 01:02:24;;;;;;;10.57;4.77;;;;;;;;;;5010718;28;20209;-60
2021/12/21 01:04:50;;;;;;;13.30;4.80;;;;;;;;;;5009252;28;20251;-60
2021/12/21 01:07:24;;;;;;;14.10;4.33;;;;;;;;;;5010525;28;20676;-60
2021/12/21 01:12:23;;;;;;;14.73;4.83;;;;;;;;;;5010355;28;20220;-60
2021/12/21 01:15:11;;;;;;;16.13;5.73;;;;;;;;;;5010959;28;20244;-60
2021/12/21 01:17:50;;;;;;;11.70;4.70;;;;;;;;;;5009873;28;20227;-60
2021/12/21 01:20:32;;;;;;;13.63;5.20;;;;;;;;;;5010449;28;20216;-60
2021/12/21 01:23:22;;;;;;;13.13;4.97;;;;;;;;;;5010608;28;20580;-60
2021/12/21 01:25:52;;;;;;;10.93;4.43;;;;;;;;;;5009425;28;20228;-60
2021/12/21 01:31:22;;;;;;;12.57;4.67;;;;;;;;;;5009487;28;20342;-61
2021/12/21 01:36:23;;;;;;;13.97;5.70;;;;;;;;;;5010138;28;20243;-60
2021/12/21 01:38:58;;;;;;;12.27;5.13;;;;;;;;;;5009906;28;20226;-60
2021/12/21 01:41:32;;;;;;;12.47;5.10;;;;;;;;;;5009978;28;20613;-60
2021/12/21 01:44:11;;;;;;;14.33;5.43;;;;;;;;;;5010429;28;20220;-60
2021/12/21 01:49:37;;;;;;;13.77;5.23;;;;;;;;;;5010046;28;20223;-60
2021/12/21 01:52:04;;;;;;;12.43;5.33;;;;;;;;;;5009303;28;20208;-60
2021/12/21 01:54:29;;;;;;;14.87;6.00;;;;;;;;;;5009262;28;20243;-60
2021/12/21 01:56:55;;;;;;;17.00;6.67;;;;;;;;;;5010418;28;20307;-60
2021/12/21 01:59:20;;;;;;;16.20;6.53;;;;;;;;;;5009013;28;20661;-60
2021/12/21 02:01:45;;;;;;;18.07;6.90;;;;;;;;;;5010089;28;20680;-60
2021/12/21 02:04:15;;;;;;;12.77;6.87;;;;;;;;;;5009843;28;20266;-60
2021/12/21 02:06:40;;;;;;;16.40;6.40;;;;;;;;;;5010444;28;20331;-60
2021/12/21 02:09:06;;;;;;;14.93;6.40;;;;;;;;;;5013702;28;20708;-60
2021/12/21 02:11:31;;;;;;;16.53;6.43;;;;;;;;;;5014492;28;20204;-60
2021/12/21 02:13:57;;;;;;;13.20;6.03;;;;;;;;;;5007067;28;20252;-60
2021/12/21 02:16:30;;;;;;;14.97;6.53;;;;;;;;;;4999106;28;20664;-60
2021/12/21 02:19:02;;;;;;;19.20;7.20;;;;;;;;;;5008470;28;20225;-60
2021/12/21 02:21:34;;;;;;;16.83;6.70;;;;;;;;;;4998481;28;20224;-60
2021/12/21 02:24:05;;;;;;;15.23;6.93;;;;;;;;;;5012767;28;20688;-60
2021/12/21 02:29:12;;;;;;;17.63;7.40;;;;;;;;;;5013251;28;20213;-60
2021/12/21 02:31:38;;;;;;;16.77;7.13;;;;;;;;;;5012351;28;20223;-60
2021/12/21 02:34:03;;;;;;;21.17;7.63;;;;;;;;;;5013004;28;20225;-60
2021/12/21 02:36:29;;;;;;;15.93;7.57;;;;;;;;;;5013315;28;20235;-60
2021/12/21 02:38:54;;;;;;;17.80;7.97;;;;;;;;;;5013704;28;20269;-60
2021/12/21 02:41:20;;;;;;;16.10;7.43;;;;;;;;;;5012690;28;20224;-60
2021/12/21 02:43:45;;;;;;;16.70;8.17;;;;;;;;;;5013490;28;20609;-60
2021/12/21 02:46:10;;;;;;;20.07;8.73;;;;;;;;;;5012978;28;20232;-60
2021/12/21 02:48:36;;;;;;;17.17;8.03;;;;;;;;;;5012563;28;20212;-60
2021/12/21 02:51:01;;;;;;;19.63;8.63;;;;;;;;;;5013222;28;20216;-61
2021/12/21 02:53:26;;;;;;;20.53;9.23;;;;;;;;;;5013532;28;20278;-60
2021/12/21 02:55:51;;;;;;;20.93;9.37;;;;;;;;;;5011467;28;20228;-60
2021/12/21 02:58:17;;;;;;;16.70;8.17;;;;;;;;;;5013010;28;20213;-59
2021/12/21 03:00:43;;;;;;;15.57;7.90;;;;;;;;;;5013294;28;20220;-60
2021/12/21 03:03:13;;;;;;;17.63;8.43;;;;;;;;;;5011949;28;20212;-60
2021/12/21 03:05:39;;;;;;;18.47;9.23;;;;;;;;;;5013294;28;20221;-60
2021/12/21 03:10:31;;;;;;;19.83;10.10;;;;;;;;;;5012560;28;20208;-60
2021/12/21 03:15:40;;;;;;;19.17;10.80;;;;;;;;;;5012706;28;20259;-60
2021/12/21 03:18:05;;;;;;;21.03;10.77;;;;;;;;;;5011281;28;20212;-60
2021/12/21 03:20:30;;;;;;;22.77;11.27;;;;;;;;;;5013013;28;20661;-60
2021/12/21 03:22:56;;;;;;;20.70;11.37;;;;;;;;;;5012901;28;20307;-60
2021/12/21 03:25:21;;;;;;;18.27;10.50;;;;;;;;;;5011729;28;20243;-60
2021/12/21 03:27:46;;;;;;;19.60;11.17;;;;;;;;;;5012836;28;20696;-60
2021/12/21 03:30:13;;;;;;;23.10;10.87;;;;;;;;;;5010936;28;20255;-60
2021/12/21 03:32:39;;;;;;;24.47;11.73;;;;;;;;;;5010467;28;20224;-60
2021/12/21 03:35:04;;;;;;;22.57;11.27;;;;;;;;;;5011887;28;20335;-60
2021/12/21 03:37:29;;;;;;;20.13;10.83;;;;;;;;;;5010667;28;20236;-60
2021/12/21 03:39:55;;;;;;;21.27;11.67;;;;;;;;;;5012462;28;20250;-60
2021/12/21 03:42:21;;;;;;;23.23;12.37;;;;;;;;;;5012142;28;20572;-60
2021/12/21 03:44:47;;;;;;;25.40;12.27;;;;;;;;;;5011483;28;20295;-60
2021/12/21 03:47:14;;;;;;;24.87;12.70;;;;;;;;;;5011838;28;20351;-60
2021/12/21 03:52:07;;;;;;;23.30;12.33;;;;;;;;;;5011138;28;20350;-60
2021/12/21 03:54:32;;;;;;;23.53;13.27;;;;;;;;;;5010865;28;20232;-60
2021/12/21 03:57:00;;;;;;;24.53;14.50;;;;;;;;;;5012260;28;20213;-59
2021/12/21 03:59:25;;;;;;;22.70;12.83;;;;;;;;;;5010821;28;20291;-60
2021/12/21 04:01:50;;;;;;;24.90;12.50;;;;;;;;;;5011892;28;20304;-60
2021/12/21 04:04:23;;;;;;;24.03;12.63;;;;;;;;;;5011487;28;20217;-60
2021/12/21 04:06:48;;;;;;;20.73;12.10;;;;;;;;;;5011276;28;20223;-60
2021/12/21 04:09:13;;;;;;;23.73;12.23;;;;;;;;;;5010215;28;20212;-60
2021/12/21 04:11:39;;;;;;;23.47;12.77;;;;;;;;;;5011960;28;20267;-60
2021/12/21 04:14:04;;;;;;;22.30;12.50;;;;;;;;;;5011021;28;20236;-60
2021/12/21 04:16:30;;;;;;;23.90;13.60;;;;;;;;;;5011748;28;20551;-60
2021/12/21 04:18:55;;;;;;;25.47;13.30;;;;;;;;;;5011996;28;20221;-60
2021/12/21 04:21:20;;;;;;;27.30;13.47;;;;;;;;;;5008806;28;20220;-60
2021/12/21 04:23:46;;;;;;;23.33;13.13;;;;;;;;;;5011758;28;20216;-60
2021/12/21 04:26:11;;;;;;;23.07;12.77;;;;;;;;;;5011230;28;20224;-59
2021/12/21 04:28:37;;;;;;;23.07;12.77;;;;;;;;;;5009405;28;20455;-60
2021/12/21 04:31:02;;;;;;;26.03;13.07;;;;;;;;;;5010443;28;20593;-60
2021/12/21 04:33:27;;;;;;;23.90;12.80;;;;;;;;;;5011340;28;20595;-60
2021/12/21 04:35:53;;;;;;;22.33;12.57;;;;;;;;;;5009257;28;20235;-60
2021/12/21 04:38:21;;;;;;;23.23;12.37;;;;;;;;;;5009765;28;20574;-60
2021/12/21 04:40:49;;;;;;;22.67;12.17;;;;;;;;;;5010866;28;20224;-60
2021/12/21 04:43:15;;;;;;;21.97;12.00;;;;;;;;;;5009673;28;20212;-60
2021/12/21 04:45:40;;;;;;;25.13;13.07;;;;;;;;;;5011388;28;20224;-60
2021/12/21 04:48:05;;;;;;;21.70;12.10;;;;;;;;;;5010112;28;20217;-60
2021/12/21 04:50:31;;;;;;;24.00;12.67;;;;;;;;;;5011263;28;20772;-60
2021/12/21 04:52:56;;;;;;;27.50;13.03;;;;;;;;;;5011098;28;20209;-60
2021/12/21 04:55:21;;;;;;;21.93;11.80;;;;;;;;;;5010048;28;20470;-60
2021/12/21 04:57:46;;;;;;;20.97;12.37;;;;;;;;;;5009776;28;20698;-60
2021/12/21 05:00:12;;;;;;;20.40;12.07;;;;;;;;;;5009411;28;20211;-60
2021/12/21 05:02:37;;;;;;;22.23;11.97;;;;;;;;;;5010093;28;20680;-60
2021/12/21 05:05:03;;;;;;;23.60;12.90;;;;;;;;;;5010683;28;20225;-60
2021/12/21 05:07:31;;;;;;;21.50;11.93;;;;;;;;;;5010823;28;20204;-60
2021/12/21 05:09:58;;;;;;;22.10;11.30;;;;;;;;;;5010319;28;20686;-60
2021/12/21 05:12:24;;;;;;;24.07;11.53;;;;;;;;;;5010461;28;20216;-60
2021/12/21 05:14:49;;;;;;;25.00;11.00;;;;;;;;;;5009827;28;20251;-60
2021/12/21 05:17:14;;;;;;;20.80;11.33;;;;;;;;;;5009723;28;20507;-60
2021/12/21 05:19:39;;;;;;;20.03;11.03;;;;;;;;;;5010855;28;20636;-60
2021/12/21 05:22:05;;;;;;;21.37;11.00;;;;;;;;;;5010002;28;20217;-60
2021/12/21 05:24:30;;;;;;;24.70;11.30;;;;;;;;;;5010048;28;20266;-59
2021/12/21 05:26:55;;;;;;;18.70;10.60;;;;;;;;;;5010672;28;20308;-60
2021/12/21 05:29:21;;;;;;;22.43;10.93;;;;;;;;;;5010264;28;20251;-60
2021/12/21 05:31:46;;;;;;;18.90;9.73;;;;;;;;;;5008491;28;20208;-60
2021/12/21 05:34:11;;;;;;;19.53;10.43;;;;;;;;;;5010062;28;20955;-60
2021/12/21 05:36:36;;;;;;;21.30;10.07;;;;;;;;;;5010477;28;20216;-59
2021/12/21 05:39:04;;;;;;;17.40;10.53;;;;;;;;;;5009451;28;20274;-60
2021/12/21 05:41:46;;;;;;;18.10;9.67;;;;;;;;;;5009043;28;20254;-60
2021/12/21 05:44:13;;;;;;;20.23;10.10;;;;;;;;;;5009525;28;20208;-60
2021/12/21 05:46:38;;;;;;;20.67;10.87;;;;;;;;;;5010455;28;20228;-60
2021/12/21 05:49:03;;;;;;;16.67;10.30;;;;;;;;;;5009878;28;20274;-60
2021/12/21 05:51:28;;;;;;;20.83;11.33;;;;;;;;;;5009620;28;20232;-60
2021/12/21 05:53:54;;;;;;;22.97;10.17;;;;;;;;;;5010420;28;20594;-60
2021/12/21 05:56:19;;;;;;;18.00;10.33;;;;;;;;;;5010208;28;20688;-60
2021/12/21 05:58:44;;;;;;;22.90;11.00;;;;;;;;;;5009609;28;20223;-60
2021/12/21 06:01:09;;;;;;;20.60;11.90;;;;;;;;;;5009879;28;20700;-59
2021/12/21 06:03:35;;;;;;;23.10;13.93;;;;;;;;;;5009007;28;20415;-59
2021/12/21 06:06:00;;;;;;;19.00;11.63;;;;;;;;;;5009444;28;20204;-58
2021/12/21 06:08:26;;;;;;;24.47;11.50;;;;;;;;;;5009648;28;20550;-59
2021/12/21 06:10:54;;;;;;;20.80;11.40;;;;;;;;;;5006732;28;20208;-59
2021/12/21 06:16:09;;;;;;;23.20;11.43;;;;;;;;;;4989528;28;20747;-58
2021/12/21 06:26:46;;;;;;;20.00;10.97;;;;;;;;;;5009208;28;20711;-59
2021/12/21 06:29:11;;;;;;;23.07;11.67;;;;;;;;;;5009418;28;20204;-59
2021/12/21 06:31:38;;;;;;;19.37;12.20;;;;;;;;;;5009994;28;20747;-59
2021/12/21 06:34:04;;;;;;;23.33;12.47;;;;;;;;;;5008572;28;20232;-60
2021/12/21 06:36:29;;;;;;;19.47;11.77;;;;;;;;;;5009869;28;20220;-59
2021/12/21 06:38:54;;;;;;;21.63;11.83;;;;;;;;;;5009678;28;20674;-59
2021/12/21 06:41:20;;;;;;;21.27;11.43;;;;;;;;;;5008762;28;20227;-58
2021/12/21 06:43:46;;;;;;;21.30;11.67;;;;;;;;;;5009739;28;20227;-59
2021/12/21 06:46:19;;;;;;;17.37;11.10;;;;;;;;;;5009414;28;20599;-59
2021/12/21 06:53:55;;;;;;;26.90;14.13;;;;;;;;;;5011972;28;20680;-57
2021/12/21 06:56:21;;;;;;;25.70;13.17;;;;;;;;;;5012170;28;20308;-58
2021/12/21 06:58:46;;;;;;;25.53;13.27;;;;;;;;;;5013179;28;20216;-57
2021/12/21 07:01:13;;;;;;;19.87;12.50;;;;;;;;;;5012708;28;20208;-57
2021/12/21 07:03:38;;;;;;;26.37;14.03;;;;;;;;;;5012473;28;20223;-58
2021/12/21 07:06:05;;;;;;;24.30;13.63;;;;;;;;;;5012516;28;20287;-58
2021/12/21 07:08:33;;;;;;;23.13;13.37;;;;;;;;;;5001422;28;20673;-58
2021/12/21 07:11:14;;;;;;;22.67;12.87;;;;;;;;;;5006010;28;20274;-58
2021/12/21 07:19:07;;;;;;;28.63;13.57;;;;;;;;;;5011757;28;20296;-58
2021/12/21 07:21:33;;;;;;;28.60;13.60;;;;;;;;;;5007867;28;20307;-58
2021/12/21 07:23:58;;;;;;;23.87;12.87;;;;;;;;;;5003360;28;20212;-58
2021/12/21 07:26:23;;;;;;;26.07;13.30;;;;;;;;;;5012259;28;20741;-58
2021/12/21 07:28:48;;;;;;;26.70;16.03;;;;;;;;;;5008305;28;20435;-58
2021/12/21 07:31:14;;;;;;;20.27;12.10;;;;;;;;;;5010256;28;20227;-58
2021/12/21 07:33:39;;;;;;;21.27;12.77;;;;;;;;;;5012596;28;20228;-58
2021/12/21 07:36:05;;;;;;;21.63;14.17;;;;;;;;;;5011913;28;20740;-58
2021/12/21 07:38:32;;;;;;;22.10;11.67;;;;;;;;;;4996183;28;20259;-58
2021/12/21 07:40:57;;;;;;;22.00;12.87;;;;;;;;;;4999577;28;20603;-58
2021/12/21 07:43:23;;;;;;;20.83;12.80;;;;;;;;;;5006511;28;20233;-59
2021/12/21 07:45:48;;;;;;;21.40;13.30;;;;;;;;;;5009372;28;20609;-59
2021/12/21 07:48:15;;;;;;;23.13;13.67;;;;;;;;;;5010605;28;20324;-58
2021/12/21 07:50:40;;;;;;;23.60;13.00;;;;;;;;;;5011892;28;20670;-59
2021/12/21 07:53:05;;;;;;;24.03;12.53;;;;;;;;;;5011811;28;20224;-58
2021/12/21 07:55:31;;;;;;;26.23;14.80;;;;;;;;;;5012461;28;20661;-58
2021/12/21 07:57:56;;;;;;;26.10;14.57;;;;;;;;;;5011452;28;20224;-59
2021/12/21 08:00:22;;;;;;;25.70;15.10;;;;;;;;;;5011691;28;20205;-59
2021/12/21 08:02:47;;;;;;;24.90;14.03;;;;;;;;;;5012013;28;20216;-59
2021/12/21 08:05:13;;;;;;;26.60;14.20;;;;;;;;;;5010879;28;20287;-58
2021/12/21 08:07:47;;;;;;;26.50;13.53;;;;;;;;;;5010718;28;20213;-58
2021/12/21 08:10:25;;;;;;;21.20;12.70;;;;;;;;;;5010275;28;20630;-59
2021/12/21 08:12:51;;;;;;;24.47;13.03;;;;;;;;;;5011159;28;20208;-59
2021/12/21 08:15:16;;;;;;;23.07;12.77;;;;;;;;;;5011593;28;20231;-59
2021/12/21 08:17:41;;;;;;;24.13;12.63;;;;;;;;;;5011643;28;20208;-59
2021/12/21 08:20:07;;;;;;;23.53;12.43;;;;;;;;;;5010617;28;20205;-59
2021/12/21 08:22:32;;;;;;;19.77;11.97;;;;;;;;;;5010151;28;20427;-59
2021/12/21 08:24:57;;;;;;;20.77;12.13;;;;;;;;;;5011785;28;20573;-59
2021/12/21 08:27:23;;;;;;;22.90;13.13;;;;;;;;;;5010557;28;20292;-59
2021/12/21 08:29:48;;;;;;;20.87;12.97;;;;;;;;;;5011859;28;20580;-59
2021/12/21 08:32:13;;;;;;;24.30;13.63;;;;;;;;;;5010851;28;20197;-59
2021/12/21 08:34:39;;;;;;;22.30;13.77;;;;;;;;;;5010936;28;20579;-59
2021/12/21 08:37:04;;;;;;;27.30;16.20;;;;;;;;;;5010877;28;20209;-59
2021/12/21 08:39:37;;;;;;;23.50;13.67;;;;;;;;;;5010325;28;20209;-59
2021/12/21 08:42:03;;;;;;;23.57;12.60;;;;;;;;;;5010107;28;20354;-59
2021/12/21 08:44:29;;;;;;;21.37;13.27;;;;;;;;;;5011425;28;20303;-60
2021/12/21 08:46:57;;;;;;;21.20;12.67;;;;;;;;;;5010339;28;20224;-59
2021/12/21 08:49:22;;;;;;;22.73;13.97;;;;;;;;;;5010672;28;20296;-59
2021/12/21 08:51:47;;;;;;;29.70;18.90;;;;;;;;;;5009938;28;20693;-58
2021/12/21 08:54:13;;;;;;;20.80;14.10;;;;;;;;;;5009918;28;21057;-58
2021/12/21 08:56:38;;;;;;;23.63;14.07;;;;;;;;;;5011160;28;20278;-59
2021/12/21 08:59:04;;;;;;;27.13;14.97;;;;;;;;;;5010938;28;20294;-59
2021/12/21 09:01:29;;;;;;;23.80;16.30;;;;;;;;;;5009980;28;20656;-59
2021/12/21 09:03:55;;;;;;;23.20;14.80;;;;;;;;;;5011147;28;20263;-59
2021/12/21 09:06:21;;;;;;;24.63;15.23;;;;;;;;;;5010554;28;20223;-59
2021/12/21 09:08:46;;;;;;;26.97;15.93;;;;;;;;;;5010180;28;20216;-59
2021/12/21 09:11:11;;;;;;;27.53;15.77;;;;;;;;;;5010555;28;20582;-59
2021/12/21 09:13:36;;;;;;;28.60;16.53;;;;;;;;;;5011043;28;20234;-59
2021/12/21 09:16:02;;;;;;;30.33;16.40;;;;;;;;;;5009082;28;20695;-59
2021/12/21 09:18:27;;;;;;;30.67;16.40;;;;;;;;;;5010912;28;20215;-59
2021/12/21 09:20:52;;;;;;;24.47;14.70;;;;;;;;;;5009543;28;20299;-59
2021/12/21 09:23:18;;;;;;;24.73;14.67;;;;;;;;;;5009680;28;20628;-59
2021/12/21 09:25:43;;;;;;;25.03;14.77;;;;;;;;;;4992954;28;20317;-59
2021/12/21 09:28:08;;;;;;;25.60;13.77;;;;;;;;;;5010354;28;20299;-59
2021/12/21 09:30:34;;;;;;;22.70;13.83;;;;;;;;;;5009892;28;20216;-58
2021/12/21 09:32:59;;;;;;;20.23;12.33;;;;;;;;;;5010604;28;20596;-59
2021/12/21 09:35:24;;;;;;;23.33;13.23;;;;;;;;;;5010401;28;20216;-59
2021/12/21 09:37:50;;;;;;;19.37;12.37;;;;;;;;;;5009626;28;20239;-59
2021/12/21 09:40:16;;;;;;;23.30;12.20;;;;;;;;;;5010004;28;20231;-59
2021/12/21 09:42:42;;;;;;;26.33;14.57;;;;;;;;;;5010213;28;20218;-58
2021/12/21 09:45:08;;;;;;;26.27;14.07;;;;;;;;;;5008139;28;20258;-59
2021/12/21 09:47:33;;;;;;;24.27;13.70;;;;;;;;;;5010581;28;20216;-59
2021/12/21 09:49:58;;;;;;;22.63;15.07;;;;;;;;;;5010572;28;20208;-59
2021/12/21 09:52:25;;;;;;;23.23;14.13;;;;;;;;;;5009128;28;20212;-59
2021/12/21 09:54:51;;;;;;;26.27;15.50;;;;;;;;;;5010312;28;20232;-59
2021/12/21 09:57:17;;;;;;;21.50;14.70;;;;;;;;;;5008967;28;20222;-59
2021/12/21 09:59:43;;;;;;;31.73;22.27;;;;;;;;;;5009040;28;20600;-59
2021/12/21 10:02:09;;;;;;;44.00;32.20;;;;;;;;;;5008469;28;20271;-59
2021/12/21 10:04:43;;;;;;;26.30;18.37;;;;;;;;;;5009541;28;20224;-59
2021/12/21 10:07:09;;;;;;;20.87;13.43;;;;;;;;;;5008489;28;20298;-59
2021/12/21 10:09:35;;;;;;;21.97;13.47;;;;;;;;;;5010372;28;20291;-59
2021/12/21 10:12:01;;;;;;;23.53;13.33;;;;;;;;;;5009035;28;20224;-59
2021/12/21 10:14:26;;;;;;;23.33;13.70;;;;;;;;;;5010238;28;20704;-59
2021/12/21 10:16:59;;;;;;;20.60;13.03;;;;;;;;;;5010249;28;20807;-59
2021/12/21 10:19:25;;;;;;;20.97;13.30;;;;;;;;;;5009064;28;20208;-59
2021/12/21 10:21:50;;;;;;;24.47;13.30;;;;;;;;;;5010054;28;20303;-59
2021/12/21 10:24:23;;;;;;;22.83;14.50;;;;;;;;;;5009523;28;20220;-59
2021/12/21 10:26:48;;;;;;;20.47;13.50;;;;;;;;;;5009461;28;20209;-59
2021/12/21 10:29:15;;;;;;;19.70;13.30;;;;;;;;;;5011086;28;20266;-59
2021/12/21 10:31:42;;;;;;;24.47;14.03;;;;;;;;;;5014000;28;20263;-59
2021/12/21 10:34:16;;;;;;;23.87;13.27;;;;;;;;;;5011070;28;20776;-59
2021/12/21 10:36:43;;;;;;;24.87;13.47;;;;;;;;;;5013757;28;20227;-59
2021/12/21 10:39:08;;;;;;;22.03;13.50;;;;;;;;;;5013481;28;20221;-60
2021/12/21 10:41:37;;;;;;;22.33;13.70;;;;;;;;;;5013065;28;20220;-59
2021/12/21 10:44:02;;;;;;;19.83;13.10;;;;;;;;;;5011790;28;20240;-59
2021/12/21 10:46:28;;;;;;;18.17;12.67;;;;;;;;;;5012790;28;20274;-59
2021/12/21 10:49:03;;;;;;;21.73;13.20;;;;;;;;;;5013476;28;20220;-59
2021/12/21 10:51:28;;;;;;;22.05;13.13;;;;;;;;;;5013346;28;20212;-59
2021/12/21 10:53:54;;;;;;;21.70;12.57;;;;;;;;;;5012659;28;20231;-59
2021/12/21 10:56:19;;;;;;;20.07;12.20;;;;;;;;;;5012958;28;20592;-59
2021/12/21 10:58:44;;;;;;;19.17;12.00;;;;;;;;;;5013050;28;20216;-59
2021/12/21 11:01:11;;;;;;;18.90;11.63;;;;;;;;;;5010889;28;20669;-60
2021/12/21 11:03:40;;;;;;;19.60;12.35;;;;;;;;;;5013044;28;20220;-59
2021/12/21 11:06:07;;;;;;;17.70;11.53;;;;;;;;;;5011612;28;20220;-60
2021/12/21 11:08:35;;;;;;;18.80;12.65;;;;;;;;;;5010973;28;20219;-59
2021/12/21 11:11:01;;;;;;;24.17;13.15;;;;;;;;;;5012737;28;20219;-60
2021/12/21 11:13:26;;;;;;;19.15;13.00;;;;;;;;;;5012985;28;20217;-59
2021/12/21 11:15:53;;;;;;;23.45;13.52;;;;;;;;;;5012368;28;20227;-59
2021/12/21 11:18:18;;;;;;;23.60;14.10;;;;;;;;;;5011200;28;20567;-60
2021/12/21 11:20:46;;;;;;;22.98;13.65;;;;;;;;;;5011791;28;20224;-60
2021/12/21 11:23:12;;;;;;;20.08;14.05;;;;;;;;;;5011754;28;20239;-60
2021/12/21 11:25:38;;;;;;;22.42;13.77;;;;;;;;;;5013017;28;20223;-59
2021/12/21 11:28:04;;;;;;;21.55;13.88;;;;;;;;;;5011154;28;20220;-59
2021/12/21 11:30:29;;;;;;;23.55;14.45;;;;;;;;;;5011755;28;20213;-59
2021/12/21 11:32:56;;;;;;;23.27;14.23;;;;;;;;;;5012669;28;20660;-59
2021/12/21 11:37:50;;;;;;;22.73;14.10;;;;;;;;;;5012080;28;20270;-59
2021/12/21 11:40:17;;;;;;;20.98;12.98;;;;;;;;;;5011704;28;20223;-60
2021/12/21 11:42:46;;;;;;;21.15;13.32;;;;;;;;;;5011887;28;20212;-59
2021/12/21 11:45:13;;;;;;;20.10;13.00;;;;;;;;;;5010445;28;20267;-60
2021/12/21 11:47:41;;;;;;;20.17;13.05;;;;;;;;;;5011109;28;20664;-59
2021/12/21 11:50:07;;;;;;;21.17;13.70;;;;;;;;;;5009949;28;20213;-60
2021/12/21 11:52:41;;;;;;;20.95;13.40;;;;;;;;;;5012742;28;20220;-59
2021/12/21 11:55:07;;;;;;;20.58;12.32;;;;;;;;;;5011730;28;20224;-60
2021/12/21 11:57:39;;;;;;;19.13;12.18;;;;;;;;;;5011508;28;20231;-59
2021/12/21 12:00:06;;;;;;;18.48;11.63;;;;;;;;;;5011348;28;20212;-59
2021/12/21 12:02:33;;;;;;;21.30;13.30;;;;;;;;;;5012209;28;20570;-59
2021/12/21 12:04:58;;;;;;;20.25;11.95;;;;;;;;;;5011351;28;20681;-59
2021/12/21 12:07:23;;;;;;;28.45;16.27;;;;;;;;;;5011515;28;20219;-59
2021/12/21 12:10:03;;;;;;;71.43;37.05;;;;;;;;;;5012187;28;20219;-59
2021/12/21 12:12:28;;;;;;;20.50;12.55;;;;;;;;;;5010744;28;20215;-59
2021/12/21 12:15:01;;;;;;;17.85;11.82;;;;;;;;;;5011656;28;20232;-59
2021/12/21 12:17:26;;;;;;;19.80;12.20;;;;;;;;;;5010412;28;20302;-59
2021/12/21 12:19:53;;;;;;;19.48;12.75;;;;;;;;;;5010001;28;20643;-59
2021/12/21 12:22:24;;;;;;;22.70;12.30;;;;;;;;;;5011262;28;20217;-59
2021/12/21 12:24:56;;;;;;;20.67;11.95;;;;;;;;;;5011825;28;20212;-59
2021/12/21 12:27:22;;;;;;;19.13;12.15;;;;;;;;;;5011338;28;20223;-59
2021/12/21 12:29:49;;;;;;;20.95;12.45;;;;;;;;;;5011305;28;20209;-59
2021/12/21 12:32:14;;;;;;;21.70;11.38;;;;;;;;;;5009201;28;20320;-60
2021/12/21 12:34:40;;;;;;;21.52;13.32;;;;;;;;;;5010213;28;20351;-60
2021/12/21 12:37:24;;;;;;;24.65;16.25;;;;;;;;;;5011064;28;20231;-59
2021/12/21 12:39:51;;;;;;;22.88;16.33;;;;;;;;;;5010647;28;20218;-59
2021/12/21 12:42:23;;;;;;;21.52;14.00;;;;;;;;;;5011009;28;20222;-59
2021/12/21 12:44:50;;;;;;;21.70;14.18;;;;;;;;;;5011355;28;20247;-59
2021/12/21 12:47:16;;;;;;;23.60;13.57;;;;;;;;;;5009954;28;20251;-59
2021/12/21 12:49:48;;;;;;;25.63;13.50;;;;;;;;;;5011213;28;20703;-59
2021/12/21 12:52:15;;;;;;;17.90;12.38;;;;;;;;;;5010065;28;20212;-60
2021/12/21 12:54:42;;;;;;;19.73;12.88;;;;;;;;;;5010556;28;20232;-59
2021/12/21 12:57:09;;;;;;;24.05;12.68;;;;;;;;;;5010609;28;20216;-60
2021/12/21 12:59:34;;;;;;;22.70;12.40;;;;;;;;;;5011026;28;20295;-59
2021/12/21 13:02:05;;;;;;;20.10;11.50;;;;;;;;;;5008714;28;20619;-59
2021/12/21 13:04:32;;;;;;;19.37;11.40;;;;;;;;;;5009539;28;20204;-59
2021/12/21 13:06:57;;;;;;;20.87;11.43;;;;;;;;;;5011070;28;20248;-59
2021/12/21 13:09:23;;;;;;;19.93;12.23;;;;;;;;;;5010084;28;20212;-59
2021/12/21 13:11:48;;;;;;;20.45;11.90;;;;;;;;;;5010974;28;20212;-59
2021/12/21 13:14:14;;;;;;;19.20;11.77;;;;;;;;;;5008199;28;20239;-59
2021/12/21 13:16:39;;;;;;;17.52;10.68;;;;;;;;;;5010627;28;20708;-59
2021/12/21 13:19:06;;;;;;;18.00;11.27;;;;;;;;;;5010311;28;20214;-59
2021/12/21 13:21:33;;;;;;;19.10;10.77;;;;;;;;;;5010079;28;20279;-59
2021/12/21 13:24:00;;;;;;;23.23;12.23;;;;;;;;;;5010686;28;20652;-59
2021/12/21 13:26:31;;;;;;;18.30;11.13;;;;;;;;;;5010366;28;20630;-59
2021/12/21 13:28:56;;;;;;;20.25;11.23;;;;;;;;;;5009898;28;20208;-59
2021/12/21 13:31:22;;;;;;;19.37;10.27;;;;;;;;;;5009991;28;20262;-59
2021/12/21 13:33:49;;;;;;;20.95;11.25;;;;;;;;;;5010492;28;20220;-59
2021/12/21 13:36:14;;;;;;;21.90;11.10;;;;;;;;;;5009644;28;20680;-59
2021/12/21 13:38:40;;;;;;;17.17;11.33;;;;;;;;;;5010305;28;20208;-59
2021/12/21 13:41:07;;;;;;;19.90;12.27;;;;;;;;;;4994706;28;20221;-59
2021/12/21 13:43:33;;;;;;;18.43;11.47;;;;;;;;;;4999357;28;20216;-59
2021/12/21 13:46:00;;;;;;;18.50;11.33;;;;;;;;;;4989217;28;20612;-58
2021/12/21 13:48:25;;;;;;;16.57;10.27;;;;;;;;;;4993554;28;20696;-63
2021/12/21 13:50:51;;;;;;;17.07;10.40;;;;;;;;;;5009196;28;20243;-63
2021/12/21 13:53:18;;;;;;;18.43;11.70;;;;;;;;;;5000691;28;20780;-63
2021/12/21 13:55:43;;;;;;;20.25;12.07;;;;;;;;;;5010558;28;20258;-63
2021/12/21 13:58:09;;;;;;;24.67;11.50;;;;;;;;;;4998733;28;20221;-63
2021/12/21 14:00:38;;;;;;;18.17;10.90;;;;;;;;;;5007663;28;20232;-63
2021/12/21 14:03:14;;;;;;;18.40;10.70;;;;;;;;;;5001154;28;20217;-63
2021/12/21 14:05:43;;;;;;;21.95;12.05;;;;;;;;;;4996715;28;20212;-63
2021/12/21 14:08:08;;;;;;;23.43;11.63;;;;;;;;;;4996846;28;20801;-63
2021/12/21 14:10:42;;;;;;;21.58;11.23;;;;;;;;;;5002027;28;20274;-62
2021/12/21 14:13:07;;;;;;;18.67;11.33;;;;;;;;;;5007000;28;20354;-62
2021/12/21 14:15:36;;;;;;;21.23;11.00;;;;;;;;;;5007004;28;20256;-62
2021/12/21 14:18:12;;;;;;;17.83;10.77;;;;;;;;;;5004898;28;20262;-62
2021/12/21 14:20:37;;;;;;;19.53;10.63;;;;;;;;;;5007411;28;20291;-62
2021/12/21 14:23:02;;;;;;;20.07;10.07;;;;;;;;;;5008182;28;20224;-63
2021/12/21 14:25:27;;;;;;;18.47;10.30;;;;;;;;;;5005052;28;20410;-62
2021/12/21 14:27:53;;;;;;;17.53;9.40;;;;;;;;;;5000608;28;20819;-62
2021/12/21 14:30:18;;;;;;;17.58;9.88;;;;;;;;;;4999465;28;20254;-62
2021/12/21 14:35:31;;;;;;;18.63;10.37;;;;;;;;;;5006888;28;20236;-62
2021/12/21 14:38:04;;;;;;;20.60;10.03;;;;;;;;;;5008228;28;20221;-62
2021/12/21 14:40:30;;;;;;;18.40;9.77;;;;;;;;;;5005541;28;20216;-62
2021/12/21 14:42:55;;;;;;;17.53;10.00;;;;;;;;;;5008445;28;20220;-62
2021/12/21 14:45:20;;;;;;;17.90;10.23;;;;;;;;;;5004013;28;20318;-62
2021/12/21 14:47:45;;;;;;;19.13;10.77;;;;;;;;;;5000960;28;20221;-62
2021/12/21 14:50:13;;;;;;;17.30;10.17;;;;;;;;;;4999732;28;20224;-62
2021/12/21 14:52:40;;;;;;;22.87;11.93;;;;;;;;;;4997532;28;20529;-62
2021/12/21 14:55:17;;;;;;;19.93;11.43;;;;;;;;;;5000695;28;20236;-63
2021/12/21 14:57:44;;;;;;;20.00;11.43;;;;;;;;;;5005988;28;20306;-62
2021/12/21 15:00:12;;;;;;;22.93;11.17;;;;;;;;;;5004553;28;20669;-62
2021/12/21 15:05:04;;;;;;;19.10;11.77;;;;;;;;;;5004370;28;20595;-63
2021/12/21 15:07:29;;;;;;;19.37;10.70;;;;;;;;;;5005915;28;20354;-62
2021/12/21 15:09:55;;;;;;;18.70;10.87;;;;;;;;;;5006157;28;20311;-63